sensor_id;sensor_type;location;lat;lon;timestamp;pressure;altitude;pressure_sealevel;temperature;humidity
52975;BME280;38839;45.186;5.720;2022-08-21T00:00:38;99147.09;;;20.86;67.65
52975;BME280;38839;45.186;5.720;2022-08-21T00:03:06;99143.66;;;20.84;67.36
52975;BME280;38839;45.186;5.720;2022-08-21T00:05:35;99140.06;;;20.85;67.51
52975;BME280;38839;45.186;5.720;2022-08-21T00:08:01;99137.34;;;20.87;67.84
52975;BME280;38839;45.186;5.720;2022-08-21T00:10:27;99147.22;;;20.83;67.47
52975;BME280;38839;45.186;5.720;2022-08-21T00:12:53;99137.63;;;20.81;67.63
52975;BME280;38839;45.186;5.720;2022-08-21T00:15:25;99146.53;;;20.80;67.89
52975;BME280;38839;45.186;5.720;2022-08-21T00:17:52;99144.72;;;20.80;67.74
52975;BME280;38839;45.186;5.720;2022-08-21T00:20:18;99133.56;;;20.74;68.02
52975;BME280;38839;45.186;5.720;2022-08-21T00:22:44;99144.22;;;20.72;68.14
52975;BME280;38839;45.186;5.720;2022-08-21T00:25:11;99137.34;;;20.68;68.49
52975;BME280;38839;45.186;5.720;2022-08-21T00:27:37;99151.50;;;20.67;68.11
52975;BME280;38839;45.186;5.720;2022-08-21T00:30:05;99145.34;;;20.66;68.34
52975;BME280;38839;45.186;5.720;2022-08-21T00:32:31;99150.59;;;20.68;68.15
52975;BME280;38839;45.186;5.720;2022-08-21T00:34:56;99146.47;;;20.61;68.03
52975;BME280;38839;45.186;5.720;2022-08-21T00:37:23;99151.78;;;20.61;68.22
52975;BME280;38839;45.186;5.720;2022-08-21T00:39:49;99146.47;;;20.61;68.59
52975;BME280;38839;45.186;5.720;2022-08-21T00:42:14;99157.31;;;20.55;69.53
52975;BME280;38839;45.186;5.720;2022-08-21T00:44:42;99157.16;;;20.59;69.63
52975;BME280;38839;45.186;5.720;2022-08-21T00:47:09;99155.38;;;20.60;69.69
52975;BME280;38839;45.186;5.720;2022-08-21T00:49:35;99150.84;;;20.62;69.95
52975;BME280;38839;45.186;5.720;2022-08-21T00:52:02;99150.91;;;20.60;69.23
52975;BME280;38839;45.186;5.720;2022-08-21T00:54:30;99142.13;;;20.60;68.92
52975;BME280;38839;45.186;5.720;2022-08-21T00:57:00;99140.50;;;20.56;68.15
52975;BME280;38839;45.186;5.720;2022-08-21T00:59:28;99138.63;;;20.58;68.06
52975;BME280;38839;45.186;5.720;2022-08-21T01:01:54;99148.38;;;20.57;68.13
52975;BME280;38839;45.186;5.720;2022-08-21T01:04:20;99144.16;;;20.53;67.78
52975;BME280;38839;45.186;5.720;2022-08-21T01:06:46;99145.13;;;20.50;67.30
52975;BME280;38839;45.186;5.720;2022-08-21T01:09:12;99148.56;;;20.53;67.52
52975;BME280;38839;45.186;5.720;2022-08-21T01:11:38;99144.28;;;20.50;67.33
52975;BME280;38839;45.186;5.720;2022-08-21T01:14:04;99145.13;;;20.50;67.40
52975;BME280;38839;45.186;5.720;2022-08-21T01:16:30;99143.41;;;20.49;67.12
52975;BME280;38839;45.186;5.720;2022-08-21T01:18:56;99138.38;;;20.43;67.04
52975;BME280;38839;45.186;5.720;2022-08-21T01:21:24;99134.78;;;20.44;66.88
52975;BME280;38839;45.186;5.720;2022-08-21T01:23:52;99138.22;;;20.46;67.08
52975;BME280;38839;45.186;5.720;2022-08-21T01:26:24;99138.50;;;20.40;67.14
52975;BME280;38839;45.186;5.720;2022-08-21T01:29:01;99136.66;;;20.42;67.54
52975;BME280;38839;45.186;5.720;2022-08-21T01:31:28;99138.78;;;20.34;69.24
52975;BME280;38839;45.186;5.720;2022-08-21T01:33:55;99145.59;;;20.40;70.11
52975;BME280;38839;45.186;5.720;2022-08-21T01:36:21;99144.94;;;20.35;70.53
52975;BME280;38839;45.186;5.720;2022-08-21T01:38:47;99141.03;;;20.23;71.40
52975;BME280;38839;45.186;5.720;2022-08-21T01:41:14;99146.59;;;20.17;72.01
52975;BME280;38839;45.186;5.720;2022-08-21T01:43:40;99143.25;;;20.12;72.51
52975;BME280;38839;45.186;5.720;2022-08-21T01:46:06;99138.72;;;20.15;71.06
52975;BME280;38839;45.186;5.720;2022-08-21T01:48:31;99150.31;;;20.13;71.44
52975;BME280;38839;45.186;5.720;2022-08-21T01:50:57;99144.25;;;20.09;72.24
52975;BME280;38839;45.186;5.720;2022-08-21T01:53:23;99130.97;;;20.10;72.58
52975;BME280;38839;45.186;5.720;2022-08-21T01:55:48;99136.78;;;20.19;71.61
52975;BME280;38839;45.186;5.720;2022-08-21T01:58:13;99129.75;;;20.18;70.69
52975;BME280;38839;45.186;5.720;2022-08-21T02:00:39;99126.31;;;20.16;70.55
52975;BME280;38839;45.186;5.720;2022-08-21T02:03:04;99130.69;;;20.17;69.77
52975;BME280;38839;45.186;5.720;2022-08-21T02:05:30;99127.13;;;20.18;68.90
52975;BME280;38839;45.186;5.720;2022-08-21T02:07:56;99127.84;;;20.21;68.28
52975;BME280;38839;45.186;5.720;2022-08-21T02:10:29;99133.19;;;20.20;67.42
52975;BME280;38839;45.186;5.720;2022-08-21T02:12:55;99135.00;;;20.19;66.76
52975;BME280;38839;45.186;5.720;2022-08-21T02:15:21;99129.75;;;20.18;66.75
52975;BME280;38839;45.186;5.720;2022-08-21T02:17:49;99130.69;;;20.17;66.39
52975;BME280;38839;45.186;5.720;2022-08-21T02:20:23;99122.97;;;20.12;66.32
52975;BME280;38839;45.186;5.720;2022-08-21T02:22:49;99116.78;;;20.12;66.65
52975;BME280;38839;45.186;5.720;2022-08-21T02:25:15;99125.66;;;20.10;66.95
52975;BME280;38839;45.186;5.720;2022-08-21T02:27:43;99124.19;;;20.03;67.26
52975;BME280;38839;45.186;5.720;2022-08-21T02:30:43;99132.28;;;20.00;67.44
52975;BME280;38839;45.186;5.720;2022-08-21T02:33:09;99133.03;;;20.04;67.74
52975;BME280;38839;45.186;5.720;2022-08-21T02:35:39;99130.44;;;20.02;67.65
52975;BME280;38839;45.186;5.720;2022-08-21T02:38:09;99131.59;;;19.95;67.59
52975;BME280;38839;45.186;5.720;2022-08-21T02:40:38;99134.38;;;19.92;67.73
52975;BME280;38839;45.186;5.720;2022-08-21T02:43:05;99125.84;;;19.85;68.12
52975;BME280;38839;45.186;5.720;2022-08-21T02:45:32;99133.00;;;19.83;67.96
52975;BME280;38839;45.186;5.720;2022-08-21T02:48:09;99127.69;;;19.83;67.99
52975;BME280;38839;45.186;5.720;2022-08-21T02:50:41;99119.88;;;19.80;67.97
52975;BME280;38839;45.186;5.720;2022-08-21T02:53:08;99122.47;;;19.82;68.14
52975;BME280;38839;45.186;5.720;2022-08-21T02:55:36;99117.38;;;19.77;68.22
52975;BME280;38839;45.186;5.720;2022-08-21T02:58:03;99113.91;;;19.75;68.19
52975;BME280;38839;45.186;5.720;2022-08-21T03:00:30;99128.66;;;19.81;67.89
52975;BME280;38839;45.186;5.720;2022-08-21T03:02:56;99110.31;;;19.76;68.48
52975;BME280;38839;45.186;5.720;2022-08-21T03:05:22;99115.81;;;19.72;68.59
52975;BME280;38839;45.186;5.720;2022-08-21T03:07:49;99116.78;;;19.69;68.69
52975;BME280;38839;45.186;5.720;2022-08-21T03:10:15;99110.56;;;19.70;68.79
52975;BME280;38839;45.186;5.720;2022-08-21T03:12:41;99114.44;;;19.61;68.83
52975;BME280;38839;45.186;5.720;2022-08-21T03:15:10;99112.84;;;19.57;70.12
52975;BME280;38839;45.186;5.720;2022-08-21T03:17:37;99108.94;;;19.44;71.73
52975;BME280;38839;45.186;5.720;2022-08-21T03:20:04;99106.38;;;19.20;75.08
52975;BME280;38839;45.186;5.720;2022-08-21T03:22:30;99112.69;;;19.16;75.91
52975;BME280;38839;45.186;5.720;2022-08-21T03:24:56;99109.91;;;18.97;78.65
52975;BME280;38839;45.186;5.720;2022-08-21T03:27:22;99110.78;;;18.98;78.45
52975;BME280;38839;45.186;5.720;2022-08-21T03:29:50;99110.88;;;18.95;78.49
52975;BME280;38839;45.186;5.720;2022-08-21T03:32:16;99109.25;;;18.90;78.99
52975;BME280;38839;45.186;5.720;2022-08-21T03:34:41;99107.41;;;18.93;78.98
52975;BME280;38839;45.186;5.720;2022-08-21T03:37:07;99099.97;;;19.04;78.53
52975;BME280;38839;45.186;5.720;2022-08-21T03:39:33;99102.78;;;19.21;78.06
52975;BME280;38839;45.186;5.720;2022-08-21T03:41:59;99097.22;;;19.29;78.24
52975;BME280;38839;45.186;5.720;2022-08-21T03:44:26;99098.75;;;19.35;78.22
52975;BME280;38839;45.186;5.720;2022-08-21T03:46:53;99096.22;;;19.32;77.78
52975;BME280;38839;45.186;5.720;2022-08-21T03:49:18;99094.75;;;19.24;77.13
52975;BME280;38839;45.186;5.720;2022-08-21T03:51:44;99089.75;;;19.17;77.18
52975;BME280;38839;45.186;5.720;2022-08-21T03:54:09;99093.44;;;19.13;77.12
52975;BME280;38839;45.186;5.720;2022-08-21T03:56:34;99098.88;;;19.09;77.01
52975;BME280;38839;45.186;5.720;2022-08-21T03:59:00;99107.88;;;19.04;76.89
52975;BME280;38839;45.186;5.720;2022-08-21T04:01:27;99101.91;;;18.99;77.08
52975;BME280;38839;45.186;5.720;2022-08-21T04:03:53;99106.34;;;18.98;77.17
52975;BME280;38839;45.186;5.720;2022-08-21T04:06:18;99110.78;;;18.98;77.17
52975;BME280;38839;45.186;5.720;2022-08-21T04:08:43;99114.22;;;19.00;77.12
52975;BME280;38839;45.186;5.720;2022-08-21T04:11:09;99107.19;;;18.99;77.07
52975;BME280;38839;45.186;5.720;2022-08-21T04:13:36;99102.94;;;18.95;77.15
52975;BME280;38839;45.186;5.720;2022-08-21T04:16:01;99114.25;;;18.98;76.83
52975;BME280;38839;45.186;5.720;2022-08-21T04:18:27;99119.72;;;18.94;77.06
52975;BME280;38839;45.186;5.720;2022-08-21T04:20:53;99117.09;;;18.94;77.33
52975;BME280;38839;45.186;5.720;2022-08-21T04:23:20;99120.94;;;18.85;77.41
52975;BME280;38839;45.186;5.720;2022-08-21T04:25:45;99116.28;;;18.92;77.49
52975;BME280;38839;45.186;5.720;2022-08-21T04:28:11;99116.38;;;18.88;77.27
52975;BME280;38839;45.186;5.720;2022-08-21T04:30:37;99116.38;;;18.88;77.41
52975;BME280;38839;45.186;5.720;2022-08-21T04:33:02;99116.53;;;18.85;77.36
52975;BME280;38839;45.186;5.720;2022-08-21T04:35:29;99119.84;;;18.90;77.76
52975;BME280;38839;45.186;5.720;2022-08-21T04:37:55;99118.94;;;18.92;77.94
52975;BME280;38839;45.186;5.720;2022-08-21T04:40:24;99123.28;;;18.93;78.61
52975;BME280;38839;45.186;5.720;2022-08-21T04:43:00;99121.63;;;18.90;79.21
52975;BME280;38839;45.186;5.720;2022-08-21T04:45:28;99111.09;;;18.88;79.61
52975;BME280;38839;45.186;5.720;2022-08-21T04:47:55;99121.81;;;18.85;81.02
52975;BME280;38839;45.186;5.720;2022-08-21T04:50:49;99123.22;;;18.94;80.46
52975;BME280;38839;45.186;5.720;2022-08-21T04:53:27;99121.56;;;18.92;80.32
52975;BME280;38839;45.186;5.720;2022-08-21T04:55:55;99118.88;;;18.93;81.16
52975;BME280;38839;45.186;5.720;2022-08-21T04:58:22;99125.94;;;18.93;80.35
52975;BME280;38839;45.186;5.720;2022-08-21T05:00:52;99123.38;;;18.91;80.95
52975;BME280;38839;45.186;5.720;2022-08-21T05:03:18;99120.63;;;18.93;80.73
52975;BME280;38839;45.186;5.720;2022-08-21T05:05:44;99124.00;;;18.98;80.89
52975;BME280;38839;45.186;5.720;2022-08-21T05:08:14;99125.69;;;18.99;80.08
52975;BME280;38839;45.186;5.720;2022-08-21T05:10:41;99130.06;;;19.00;79.74
52975;BME280;38839;45.186;5.720;2022-08-21T05:13:08;99126.41;;;19.04;79.41
52975;BME280;38839;45.186;5.720;2022-08-21T05:15:33;99130.50;;;19.11;79.11
52975;BME280;38839;45.186;5.720;2022-08-21T05:17:59;99127.19;;;19.06;79.36
52975;BME280;38839;45.186;5.720;2022-08-21T05:20:24;99133.19;;;19.33;78.79
52975;BME280;38839;45.186;5.720;2022-08-21T05:22:49;99132.66;;;20.12;76.02
52975;BME280;38839;45.186;5.720;2022-08-21T05:25:16;99138.84;;;20.53;74.46
52975;BME280;38839;45.186;5.720;2022-08-21T05:27:41;99136.00;;;21.16;71.85
52975;BME280;38839;45.186;5.720;2022-08-21T05:30:07;99138.91;;;22.21;67.44
52975;BME280;38839;45.186;5.720;2022-08-21T05:32:34;99141.91;;;22.99;64.43
52975;BME280;38839;45.186;5.720;2022-08-21T05:34:59;99140.00;;;23.50;62.13
52975;BME280;38839;45.186;5.720;2022-08-21T05:37:25;99134.28;;;22.59;64.48
52975;BME280;38839;45.186;5.720;2022-08-21T05:39:50;99146.41;;;21.59;68.15
52975;BME280;38839;45.186;5.720;2022-08-21T05:42:16;99130.63;;;21.37;69.49
52975;BME280;38839;45.186;5.720;2022-08-21T05:44:41;99132.16;;;21.42;69.19
52975;BME280;38839;45.186;5.720;2022-08-21T05:47:09;99144.84;;;21.55;68.81
52975;BME280;38839;45.186;5.720;2022-08-21T05:49:36;99140.88;;;21.25;69.33
52975;BME280;38839;45.186;5.720;2022-08-21T05:52:03;99139.81;;;20.71;71.06
52975;BME280;38839;45.186;5.720;2022-08-21T05:54:28;99144.75;;;20.60;71.98
52975;BME280;38839;45.186;5.720;2022-08-21T05:56:54;99147.91;;;20.06;73.50
52975;BME280;38839;45.186;5.720;2022-08-21T05:59:19;99148.47;;;19.93;74.66
52975;BME280;38839;45.186;5.720;2022-08-21T06:01:45;99145.13;;;20.09;74.24
52975;BME280;38839;45.186;5.720;2022-08-21T06:04:11;99147.72;;;20.11;73.96
52975;BME280;38839;45.186;5.720;2022-08-21T06:06:36;99145.59;;;20.19;73.55
52975;BME280;38839;45.186;5.720;2022-08-21T06:09:02;99152.75;;;20.17;73.46
52975;BME280;38839;45.186;5.720;2022-08-21T06:11:28;99148.31;;;20.18;73.70
52975;BME280;38839;45.186;5.720;2022-08-21T06:13:53;99149.50;;;20.10;73.65
52975;BME280;38839;45.186;5.720;2022-08-21T06:16:18;99158.69;;;20.02;74.08
52975;BME280;38839;45.186;5.720;2022-08-21T06:18:44;99147.44;;;19.97;74.08
52975;BME280;38839;45.186;5.720;2022-08-21T06:21:11;99148.69;;;19.88;74.08
52975;BME280;38839;45.186;5.720;2022-08-21T06:23:38;99157.88;;;19.79;74.36
52975;BME280;38839;45.186;5.720;2022-08-21T06:26:04;99154.59;;;19.73;74.88
52975;BME280;38839;45.186;5.720;2022-08-21T06:28:30;99150.38;;;19.67;74.61
52975;BME280;38839;45.186;5.720;2022-08-21T06:30:55;99155.75;;;19.65;74.90
52975;BME280;38839;45.186;5.720;2022-08-21T06:33:21;99152.81;;;19.73;74.45
52975;BME280;38839;45.186;5.720;2022-08-21T06:35:46;99148.31;;;19.75;74.45
52975;BME280;38839;45.186;5.720;2022-08-21T06:38:12;99148.97;;;19.80;73.94
52975;BME280;38839;45.186;5.720;2022-08-21T06:40:38;99150.38;;;19.89;73.76
52975;BME280;38839;45.186;5.720;2022-08-21T06:43:12;99151.81;;;19.76;73.92
52975;BME280;38839;45.186;5.720;2022-08-21T06:45:39;99142.84;;;19.80;73.76
52975;BME280;38839;45.186;5.720;2022-08-21T06:48:05;99140.13;;;19.81;73.98
52975;BME280;38839;45.186;5.720;2022-08-21T06:50:32;99142.03;;;19.78;74.19
52975;BME280;38839;45.186;5.720;2022-08-21T06:53:10;99151.44;;;19.85;73.74
52975;BME280;38839;45.186;5.720;2022-08-21T06:55:37;99145.78;;;19.94;73.26
52975;BME280;38839;45.186;5.720;2022-08-21T06:58:03;99145.53;;;20.00;72.90
52975;BME280;38839;45.186;5.720;2022-08-21T07:00:30;99155.16;;;20.01;72.76
52975;BME280;38839;45.186;5.720;2022-08-21T07:02:56;99156.97;;;20.01;72.72
52975;BME280;38839;45.186;5.720;2022-08-21T07:05:22;99154.66;;;20.14;72.50
52975;BME280;38839;45.186;5.720;2022-08-21T07:07:50;99158.25;;;20.33;71.81
52975;BME280;38839;45.186;5.720;2022-08-21T07:10:15;99147.41;;;20.39;71.17
52975;BME280;38839;45.186;5.720;2022-08-21T07:12:41;99149.38;;;20.34;71.27
52975;BME280;38839;45.186;5.720;2022-08-21T07:15:07;99151.56;;;20.45;70.92
52975;BME280;38839;45.186;5.720;2022-08-21T07:17:33;99161.56;;;20.38;71.16
52975;BME280;38839;45.186;5.720;2022-08-21T07:19:58;99166.16;;;20.55;70.77
52975;BME280;38839;45.186;5.720;2022-08-21T07:22:23;99159.97;;;20.75;69.65
52975;BME280;38839;45.186;5.720;2022-08-21T07:24:49;99157.84;;;20.83;69.30
52975;BME280;38839;45.186;5.720;2022-08-21T07:27:15;99157.19;;;20.78;69.43
52975;BME280;38839;45.186;5.720;2022-08-21T07:29:40;99158.22;;;20.95;68.95
52975;BME280;38839;45.186;5.720;2022-08-21T07:32:06;99156.44;;;21.14;68.26
52975;BME280;38839;45.186;5.720;2022-08-21T07:34:31;99147.41;;;21.18;67.89
52975;BME280;38839;45.186;5.720;2022-08-21T07:36:57;99154.28;;;21.22;67.46
52975;BME280;38839;45.186;5.720;2022-08-21T07:39:24;99157.88;;;21.21;67.27
52975;BME280;38839;45.186;5.720;2022-08-21T07:41:49;99153.72;;;21.16;68.03
52975;BME280;38839;45.186;5.720;2022-08-21T07:44:16;99148.50;;;21.33;67.35
52975;BME280;38839;45.186;5.720;2022-08-21T07:46:41;99142.69;;;21.44;67.15
52975;BME280;38839;45.186;5.720;2022-08-21T07:49:06;99144.09;;;21.70;66.18
52975;BME280;38839;45.186;5.720;2022-08-21T07:51:32;99142.91;;;21.76;66.16
52975;BME280;38839;45.186;5.720;2022-08-21T07:53:59;99137.81;;;22.07;65.15
52975;BME280;38839;45.186;5.720;2022-08-21T07:56:26;99137.19;;;22.20;63.93
52975;BME280;38839;45.186;5.720;2022-08-21T07:58:51;99138.16;;;22.36;63.72
52975;BME280;38839;45.186;5.720;2022-08-21T08:01:17;99133.41;;;23.57;59.92
52975;BME280;38839;45.186;5.720;2022-08-21T08:03:43;99122.72;;;24.49;56.81
52975;BME280;38839;45.186;5.720;2022-08-21T08:06:09;99125.00;;;24.25;57.00
52975;BME280;38839;45.186;5.720;2022-08-21T08:08:40;99122.22;;;24.13;57.76
52975;BME280;38839;45.186;5.720;2022-08-21T08:11:06;99117.66;;;24.15;57.13
52975;BME280;38839;45.186;5.720;2022-08-21T08:13:39;99110.44;;;24.17;56.58
52975;BME280;38839;45.186;5.720;2022-08-21T08:16:04;99103.56;;;24.13;57.29
52975;BME280;38839;45.186;5.720;2022-08-21T08:18:30;99101.06;;;24.09;56.82
52975;BME280;38839;45.186;5.720;2022-08-21T08:20:55;99099.41;;;24.23;56.78
52975;BME280;38839;45.186;5.720;2022-08-21T08:23:21;99100.25;;;24.23;56.65
52975;BME280;38839;45.186;5.720;2022-08-21T08:25:47;99102.88;;;24.09;56.84
52975;BME280;38839;45.186;5.720;2022-08-21T08:28:13;99098.28;;;24.41;56.20
52975;BME280;38839;45.186;5.720;2022-08-21T08:30:38;99102.53;;;24.60;55.53
52975;BME280;38839;45.186;5.720;2022-08-21T08:33:04;99104.63;;;26.46;50.80
52975;BME280;38839;45.186;5.720;2022-08-21T08:35:29;99095.94;;;27.44;48.34
52975;BME280;38839;45.186;5.720;2022-08-21T08:37:55;99093.31;;;27.18;48.53
52975;BME280;38839;45.186;5.720;2022-08-21T08:43:57;99090.97;;;25.31;51.68
52975;BME280;38839;45.186;5.720;2022-08-21T08:46:35;99079.69;;;25.53;51.50
52975;BME280;38839;45.186;5.720;2022-08-21T08:49:11;99073.50;;;25.11;52.53
52975;BME280;38839;45.186;5.720;2022-08-21T08:54:28;99060.75;;;25.02;52.96
52975;BME280;38839;45.186;5.720;2022-08-21T08:56:58;99063.78;;;25.10;53.07
52975;BME280;38839;45.186;5.720;2022-08-21T08:59:55;99057.13;;;25.03;52.23
52975;BME280;38839;45.186;5.720;2022-08-21T09:02:22;99059.84;;;25.30;52.37
52975;BME280;38839;45.186;5.720;2022-08-21T09:04:53;99052.28;;;25.64;51.43
52975;BME280;38839;45.186;5.720;2022-08-21T09:08:00;99054.66;;;25.68;50.91
52975;BME280;38839;45.186;5.720;2022-08-21T09:11:01;99049.09;;;25.32;51.92
52975;BME280;38839;45.186;5.720;2022-08-21T09:21:39;99044.34;;;25.89;51.12
52975;BME280;38839;45.186;5.720;2022-08-21T09:26:54;99039.28;;;25.85;50.66
52975;BME280;38839;45.186;5.720;2022-08-21T09:29:24;99042.66;;;26.01;50.43
52975;BME280;38839;45.186;5.720;2022-08-21T09:31:51;99035.19;;;25.66;51.46
52975;BME280;38839;45.186;5.720;2022-08-21T09:34:25;99025.53;;;25.51;50.87
52975;BME280;38839;45.186;5.720;2022-08-21T09:36:51;99032.59;;;25.52;51.52
52975;BME280;38839;45.186;5.720;2022-08-21T09:39:42;99025.41;;;25.40;51.08
52975;BME280;38839;45.186;5.720;2022-08-21T09:42:09;99028.47;;;25.34;51.72
52975;BME280;38839;45.186;5.720;2022-08-21T09:44:40;99023.47;;;25.15;52.46
52975;BME280;38839;45.186;5.720;2022-08-21T09:47:09;99024.69;;;25.23;52.33
52975;BME280;38839;45.186;5.720;2022-08-21T09:49:39;99028.97;;;25.26;52.71
52975;BME280;38839;45.186;5.720;2022-08-21T09:52:16;99017.03;;;25.32;52.73
52975;BME280;38839;45.186;5.720;2022-08-21T09:54:44;99021.00;;;25.39;52.58
52975;BME280;38839;45.186;5.720;2022-08-21T09:57:12;99015.31;;;25.16;52.98
52975;BME280;38839;45.186;5.720;2022-08-21T10:00:09;99005.16;;;25.23;52.38
52975;BME280;38839;45.186;5.720;2022-08-21T10:02:36;98994.09;;;25.15;52.96
52975;BME280;38839;45.186;5.720;2022-08-21T10:07:31;98990.19;;;25.06;52.86
52975;BME280;38839;45.186;5.720;2022-08-21T10:16:00;98970.69;;;25.18;53.17
52975;BME280;38839;45.186;5.720;2022-08-21T10:21:23;98960.84;;;25.06;53.27
52975;BME280;38839;45.186;5.720;2022-08-21T10:26:48;98955.56;;;25.19;52.91
52975;BME280;38839;45.186;5.720;2022-08-21T10:29:39;98957.00;;;25.10;52.65
52975;BME280;38839;45.186;5.720;2022-08-21T10:40:34;98958.03;;;24.95;53.07
52975;BME280;38839;45.186;5.720;2022-08-21T10:46:21;98935.25;;;24.89;53.28
52975;BME280;38839;45.186;5.720;2022-08-21T10:48:58;98942.16;;;25.06;53.41
52975;BME280;38839;45.186;5.720;2022-08-21T10:51:49;98928.88;;;25.19;52.84
52975;BME280;38839;45.186;5.720;2022-08-21T10:54:30;98921.81;;;24.90;52.70
52975;BME280;38839;45.186;5.720;2022-08-21T10:57:04;98921.44;;;24.97;53.07
52975;BME280;38839;45.186;5.720;2022-08-21T10:59:44;98918.13;;;25.06;52.79
52975;BME280;38839;45.186;5.720;2022-08-21T11:02:18;98916.84;;;24.99;52.39
52975;BME280;38839;45.186;5.720;2022-08-21T11:05:14;98904.91;;;25.04;52.21
52975;BME280;38839;45.186;5.720;2022-08-21T11:07:51;98900.84;;;25.12;52.01
52975;BME280;38839;45.186;5.720;2022-08-21T11:10:25;98890.44;;;25.21;51.34
52975;BME280;38839;45.186;5.720;2022-08-21T11:13:00;98907.75;;;25.28;51.54
52975;BME280;38839;45.186;5.720;2022-08-21T11:18:33;98896.03;;;25.44;51.04
52975;BME280;38839;45.186;5.720;2022-08-21T11:23:41;98887.50;;;25.64;50.25
52975;BME280;38839;45.186;5.720;2022-08-21T11:26:15;98881.53;;;25.48;50.46
52975;BME280;38839;45.186;5.720;2022-08-21T11:28:51;98875.19;;;25.49;50.22
52975;BME280;38839;45.186;5.720;2022-08-21T11:37:01;98880.56;;;25.75;49.96
52975;BME280;38839;45.186;5.720;2022-08-21T11:39:41;98866.53;;;25.84;49.42
52975;BME280;38839;45.186;5.720;2022-08-21T11:45:26;98872.31;;;26.16;48.60
52975;BME280;38839;45.186;5.720;2022-08-21T11:48:26;98875.31;;;26.12;48.55
52975;BME280;38839;45.186;5.720;2022-08-21T11:50:54;98884.38;;;26.22;48.70
52975;BME280;38839;45.186;5.720;2022-08-21T11:53:25;98873.66;;;26.35;48.32
52975;BME280;38839;45.186;5.720;2022-08-21T11:56:11;98866.44;;;26.48;47.95
52975;BME280;38839;45.186;5.720;2022-08-21T11:58:42;98863.84;;;26.59;47.06
52975;BME280;38839;45.186;5.720;2022-08-21T12:01:15;98856.81;;;26.45;47.82
52975;BME280;38839;45.186;5.720;2022-08-21T12:03:54;98858.75;;;26.43;47.94
52975;BME280;38839;45.186;5.720;2022-08-21T12:06:38;98865.47;;;26.49;47.60
52975;BME280;38839;45.186;5.720;2022-08-21T12:12:13;98862.47;;;26.17;48.35
52975;BME280;38839;45.186;5.720;2022-08-21T12:14:45;98859.94;;;26.39;47.13
52975;BME280;38839;45.186;5.720;2022-08-21T12:17:22;98871.16;;;26.44;47.35
52975;BME280;38839;45.186;5.720;2022-08-21T12:19:58;98866.03;;;26.41;47.42
52975;BME280;38839;45.186;5.720;2022-08-21T12:22:38;98854.88;;;26.47;47.41
52975;BME280;38839;45.186;5.720;2022-08-21T12:25:13;98859.34;;;26.60;47.36
52975;BME280;38839;45.186;5.720;2022-08-21T12:32:57;98867.06;;;26.64;46.63
52975;BME280;38839;45.186;5.720;2022-08-21T12:35:27;98861.94;;;26.48;46.69
52975;BME280;38839;45.186;5.720;2022-08-21T12:38:20;98860.56;;;26.43;47.20
52975;BME280;38839;45.186;5.720;2022-08-21T12:41:01;98864.69;;;26.60;46.59
52975;BME280;38839;45.186;5.720;2022-08-21T12:43:40;98857.50;;;26.73;46.59
52975;BME280;38839;45.186;5.720;2022-08-21T12:46:17;98855.72;;;26.61;46.39
52975;BME280;38839;45.186;5.720;2022-08-21T12:48:52;98847.59;;;26.62;46.29
52975;BME280;38839;45.186;5.720;2022-08-21T12:51:50;98846.72;;;26.62;46.44
52975;BME280;38839;45.186;5.720;2022-08-21T12:54:26;98852.09;;;26.49;46.03
52975;BME280;38839;45.186;5.720;2022-08-21T12:57:02;98856.34;;;26.52;46.72
52975;BME280;38839;45.186;5.720;2022-08-21T12:59:28;98850.25;;;26.49;45.75
52975;BME280;38839;45.186;5.720;2022-08-21T13:01:55;98860.47;;;26.44;46.42
52975;BME280;38839;45.186;5.720;2022-08-21T13:04:41;98856.00;;;26.32;46.12
52975;BME280;38839;45.186;5.720;2022-08-21T13:07:10;98836.16;;;26.47;46.12
52975;BME280;38839;45.186;5.720;2022-08-21T13:09:47;98841.66;;;26.70;45.95
52975;BME280;38839;45.186;5.720;2022-08-21T13:12:13;98844.88;;;26.86;45.29
52975;BME280;38839;45.186;5.720;2022-08-21T13:14:41;98840.72;;;26.82;45.24
52975;BME280;38839;45.186;5.720;2022-08-21T13:17:08;98841.03;;;26.66;45.35
52975;BME280;38839;45.186;5.720;2022-08-21T13:19:35;98833.97;;;26.89;45.06
52975;BME280;38839;45.186;5.720;2022-08-21T13:22:01;98835.91;;;26.99;45.27
52975;BME280;38839;45.186;5.720;2022-08-21T13:24:33;98822.00;;;26.82;45.05
52975;BME280;38839;45.186;5.720;2022-08-21T13:26:59;98829.75;;;26.74;45.24
52975;BME280;38839;45.186;5.720;2022-08-21T13:29:30;98817.72;;;26.80;44.99
52975;BME280;38839;45.186;5.720;2022-08-21T13:31:59;98814.56;;;26.75;45.33
52975;BME280;38839;45.186;5.720;2022-08-21T13:34:29;98808.06;;;26.66;45.25
52975;BME280;38839;45.186;5.720;2022-08-21T13:37:00;98814.16;;;26.44;45.39
52975;BME280;38839;45.186;5.720;2022-08-21T13:39:26;98813.56;;;26.52;45.41
52975;BME280;38839;45.186;5.720;2022-08-21T13:41:55;98805.41;;;26.53;45.65
52975;BME280;38839;45.186;5.720;2022-08-21T13:44:43;98798.03;;;26.57;45.35
52975;BME280;38839;45.186;5.720;2022-08-21T13:47:11;98800.44;;;26.73;44.46
52975;BME280;38839;45.186;5.720;2022-08-21T13:49:49;98800.91;;;26.66;44.58
52975;BME280;38839;45.186;5.720;2022-08-21T13:52:18;98798.50;;;26.75;44.46
52975;BME280;38839;45.186;5.720;2022-08-21T13:54:55;98794.47;;;26.69;43.89
52975;BME280;38839;45.186;5.720;2022-08-21T13:57:32;98794.28;;;26.59;44.03
52975;BME280;38839;45.186;5.720;2022-08-21T14:00:20;98780.72;;;26.74;43.81
52975;BME280;38839;45.186;5.720;2022-08-21T14:02:52;98794.75;;;26.88;43.73
52975;BME280;38839;45.186;5.720;2022-08-21T14:05:25;98789.75;;;26.84;43.29
52975;BME280;38839;45.186;5.720;2022-08-21T14:08:00;98771.13;;;26.71;43.52
52975;BME280;38839;45.186;5.720;2022-08-21T14:10:27;98771.13;;;26.82;43.23
52975;BME280;38839;45.186;5.720;2022-08-21T14:12:59;98781.09;;;26.80;43.04
52975;BME280;38839;45.186;5.720;2022-08-21T14:15:28;98777.00;;;26.87;42.70
52975;BME280;38839;45.186;5.720;2022-08-21T14:18:06;98773.41;;;27.11;42.32